sensor_id;sensor_type;location;lat;lon;timestamp;P1;durP1;ratioP1;P2;durP2;ratioP2
1014;SDS011;8170;48.118;11.628;2022-12-18T00:00:22;62.00;;;28.35;;
1014;SDS011;8170;48.118;11.628;2022-12-18T00:01:27;64.93;;;27.50;;
1014;SDS011;8170;48.118;11.628;2022-12-18T00:02:34;68.82;;;30.98;;
1014;SDS011;8170;48.118;11.628;2022-12-18T00:03:37;69.32;;;31.63;;
1014;SDS011;8170;48.118;11.628;2022-12-18T00:04:41;58.97;;;29.65;;
1014;SDS011;8170;48.118;11.628;2022-12-18T00:05:47;60.88;;;29.05;;
1014;SDS011;8170;48.118;11.628;2022-12-18T00:06:49;66.05;;;28.80;;
1014;SDS011;8170;48.118;11.628;2022-12-18T00:07:53;66.70;;;31.13;;
1014;SDS011;8170;48.118;11.628;2022-12-18T00:08:55;74.18;;;31.00;;
1014;SDS011;8170;48.118;11.628;2022-12-18T00:10:00;69.10;;;31.75;;
1014;SDS011;8170;48.118;11.628;2022-12-18T00:11:03;66.95;;;31.58;;
1014;SDS011;8170;48.118;11.628;2022-12-18T00:12:07;74.95;;;31.75;;
1014;SDS011;8170;48.118;11.628;2022-12-18T00:13:16;90.38;;;34.75;;
1014;SDS011;8170;48.118;11.628;2022-12-18T00:14:19;66.28;;;31.27;;
1014;SDS011;8170;48.118;11.628;2022-12-18T00:15:22;62.22;;;29.27;;
1014;SDS011;8170;48.118;11.628;2022-12-18T00:16:25;70.55;;;33.67;;
1014;SDS011;8170;48.118;11.628;2022-12-18T00:17:29;78.07;;;34.63;;
1014;SDS011;8170;48.118;11.628;2022-12-18T00:18:33;71.65;;;33.33;;
1014;SDS011;8170;48.118;11.628;2022-12-18T00:19:36;71.43;;;31.02;;
1014;SDS011;8170;48.118;11.628;2022-12-18T00:20:39;79.15;;;32.20;;
1014;SDS011;8170;48.118;11.628;2022-12-18T00:21:42;88.70;;;32.80;;
1014;SDS011;8170;48.118;11.628;2022-12-18T00:22:46;75.65;;;31.52;;
1014;SDS011;8170;48.118;11.628;2022-12-18T00:23:48;72.28;;;31.90;;
1014;SDS011;8170;48.118;11.628;2022-12-18T00:24:52;79.25;;;33.78;;
1014;SDS011;8170;48.118;11.628;2022-12-18T00:25:58;83.03;;;33.55;;
1014;SDS011;8170;48.118;11.628;2022-12-18T00:27:00;82.05;;;35.30;;
1014;SDS011;8170;48.118;11.628;2022-12-18T00:28:04;77.22;;;33.30;;
1014;SDS011;8170;48.118;11.628;2022-12-18T00:29:07;66.72;;;31.33;;
1014;SDS011;8170;48.118;11.628;2022-12-18T00:30:14;70.88;;;30.65;;
1014;SDS011;8170;48.118;11.628;2022-12-18T00:31:19;77.50;;;33.25;;
1014;SDS011;8170;48.118;11.628;2022-12-18T00:32:23;67.72;;;30.23;;
1014;SDS011;8170;48.118;11.628;2022-12-18T00:33:25;77.63;;;32.22;;
1014;SDS011;8170;48.118;11.628;2022-12-18T00:34:30;67.28;;;32.03;;
1014;SDS011;8170;48.118;11.628;2022-12-18T00:35:32;62.45;;;30.48;;
1014;SDS011;8170;48.118;11.628;2022-12-18T00:36:36;73.85;;;33.10;;
1014;SDS011;8170;48.118;11.628;2022-12-18T00:37:38;71.63;;;30.23;;
1014;SDS011;8170;48.118;11.628;2022-12-18T00:38:41;75.88;;;31.38;;
1014;SDS011;8170;48.118;11.628;2022-12-18T00:39:43;83.88;;;31.80;;
1014;SDS011;8170;48.118;11.628;2022-12-18T00:40:46;79.45;;;32.38;;
1014;SDS011;8170;48.118;11.628;2022-12-18T00:41:48;65.80;;;31.40;;
1014;SDS011;8170;48.118;11.628;2022-12-18T00:43:09;64.97;;;31.80;;
1014;SDS011;8170;48.118;11.628;2022-12-18T00:44:12;60.40;;;28.00;;
1014;SDS011;8170;48.118;11.628;2022-12-18T00:45:15;61.00;;;28.08;;
1014;SDS011;8170;48.118;11.628;2022-12-18T00:46:20;73.60;;;31.88;;
1014;SDS011;8170;48.118;11.628;2022-12-18T00:47:22;61.95;;;28.70;;
1014;SDS011;8170;48.118;11.628;2022-12-18T00:48:25;64.10;;;27.15;;
1014;SDS011;8170;48.118;11.628;2022-12-18T00:49:27;69.15;;;30.13;;
1014;SDS011;8170;48.118;11.628;2022-12-18T00:50:32;68.75;;;31.55;;
1014;SDS011;8170;48.118;11.628;2022-12-18T00:51:34;72.88;;;30.05;;
1014;SDS011;8170;48.118;11.628;2022-12-18T00:52:37;69.50;;;29.75;;
1014;SDS011;8170;48.118;11.628;2022-12-18T00:53:41;69.43;;;29.15;;
1014;SDS011;8170;48.118;11.628;2022-12-18T00:54:45;63.95;;;30.38;;
1014;SDS011;8170;48.118;11.628;2022-12-18T00:55:48;60.30;;;27.70;;
1014;SDS011;8170;48.118;11.628;2022-12-18T00:56:50;68.57;;;29.50;;
1014;SDS011;8170;48.118;11.628;2022-12-18T00:57:53;65.38;;;27.70;;
1014;SDS011;8170;48.118;11.628;2022-12-18T00:58:55;68.43;;;29.85;;
1014;SDS011;8170;48.118;11.628;2022-12-18T00:59:58;76.35;;;29.88;;
1014;SDS011;8170;48.118;11.628;2022-12-18T01:01:00;69.13;;;29.92;;
1014;SDS011;8170;48.118;11.628;2022-12-18T01:02:08;68.07;;;30.13;;
1014;SDS011;8170;48.118;11.628;2022-12-18T01:03:12;57.20;;;27.45;;
1014;SDS011;8170;48.118;11.628;2022-12-18T01:04:17;68.43;;;30.00;;
1014;SDS011;8170;48.118;11.628;2022-12-18T01:05:20;54.30;;;28.33;;
1014;SDS011;8170;48.118;11.628;2022-12-18T01:06:24;66.15;;;29.25;;
1014;SDS011;8170;48.118;11.628;2022-12-18T01:07:26;70.90;;;29.50;;
1014;SDS011;8170;48.118;11.628;2022-12-18T01:08:30;70.57;;;30.23;;
1014;SDS011;8170;48.118;11.628;2022-12-18T01:09:32;61.53;;;28.65;;
1014;SDS011;8170;48.118;11.628;2022-12-18T01:10:36;59.83;;;29.48;;
1014;SDS011;8170;48.118;11.628;2022-12-18T01:11:41;65.30;;;27.23;;
1014;SDS011;8170;48.118;11.628;2022-12-18T01:12:44;66.22;;;29.08;;
1014;SDS011;8170;48.118;11.628;2022-12-18T01:13:47;67.90;;;31.02;;
1014;SDS011;8170;48.118;11.628;2022-12-18T01:14:50;68.50;;;30.45;;
1014;SDS011;8170;48.118;11.628;2022-12-18T01:15:52;59.65;;;29.95;;
1014;SDS011;8170;48.118;11.628;2022-12-18T01:16:56;61.20;;;28.15;;
1014;SDS011;8170;48.118;11.628;2022-12-18T01:17:58;58.13;;;29.40;;
1014;SDS011;8170;48.118;11.628;2022-12-18T01:19:01;63.28;;;29.40;;
1014;SDS011;8170;48.118;11.628;2022-12-18T01:20:04;58.70;;;28.80;;
1014;SDS011;8170;48.118;11.628;2022-12-18T01:21:09;64.88;;;30.42;;
1014;SDS011;8170;48.118;11.628;2022-12-18T01:22:14;55.95;;;27.00;;
1014;SDS011;8170;48.118;11.628;2022-12-18T01:23:18;59.45;;;27.98;;
1014;SDS011;8170;48.118;11.628;2022-12-18T01:24:21;66.57;;;30.05;;
1014;SDS011;8170;48.118;11.628;2022-12-18T01:25:24;63.15;;;28.83;;
1014;SDS011;8170;48.118;11.628;2022-12-18T01:26:26;57.35;;;27.80;;
1014;SDS011;8170;48.118;11.628;2022-12-18T01:27:31;66.32;;;30.10;;
1014;SDS011;8170;48.118;11.628;2022-12-18T01:28:34;64.95;;;31.35;;
1014;SDS011;8170;48.118;11.628;2022-12-18T01:29:38;59.58;;;28.15;;
1014;SDS011;8170;48.118;11.628;2022-12-18T01:30:41;61.80;;;28.17;;
1014;SDS011;8170;48.118;11.628;2022-12-18T01:31:44;60.08;;;29.00;;
1014;SDS011;8170;48.118;11.628;2022-12-18T01:32:46;59.08;;;30.00;;
1014;SDS011;8170;48.118;11.628;2022-12-18T01:33:51;67.88;;;30.80;;
1014;SDS011;8170;48.118;11.628;2022-12-18T01:34:54;66.32;;;31.42;;
1014;SDS011;8170;48.118;11.628;2022-12-18T01:35:57;60.40;;;29.58;;
1014;SDS011;8170;48.118;11.628;2022-12-18T01:37:01;61.85;;;30.52;;
1014;SDS011;8170;48.118;11.628;2022-12-18T01:38:06;62.42;;;29.05;;
1014;SDS011;8170;48.118;11.628;2022-12-18T01:39:11;59.72;;;28.55;;
1014;SDS011;8170;48.118;11.628;2022-12-18T01:40:15;82.68;;;29.23;;
1014;SDS011;8170;48.118;11.628;2022-12-18T01:41:19;61.25;;;29.23;;
1014;SDS011;8170;48.118;11.628;2022-12-18T01:42:24;70.25;;;30.20;;
1014;SDS011;8170;48.118;11.628;2022-12-18T01:43:46;63.58;;;29.80;;
1014;SDS011;8170;48.118;11.628;2022-12-18T01:44:54;62.97;;;29.15;;
1014;SDS011;8170;48.118;11.628;2022-12-18T01:46:01;66.78;;;30.65;;
1014;SDS011;8170;48.118;11.628;2022-12-18T01:47:04;60.63;;;28.02;;
1014;SDS011;8170;48.118;11.628;2022-12-18T01:48:07;66.63;;;31.27;;
1014;SDS011;8170;48.118;11.628;2022-12-18T01:49:14;57.90;;;26.73;;
1014;SDS011;8170;48.118;11.628;2022-12-18T01:50:18;68.88;;;30.15;;
1014;SDS011;8170;48.118;11.628;2022-12-18T01:51:38;75.25;;;32.13;;
1014;SDS011;8170;48.118;11.628;2022-12-18T01:52:40;63.38;;;29.98;;
1014;SDS011;8170;48.118;11.628;2022-12-18T01:53:54;71.55;;;32.20;;
1014;SDS011;8170;48.118;11.628;2022-12-18T01:55:08;71.38;;;31.58;;
1014;SDS011;8170;48.118;11.628;2022-12-18T01:56:20;60.83;;;29.85;;
1014;SDS011;8170;48.118;11.628;2022-12-18T01:57:26;79.30;;;32.15;;
1014;SDS011;8170;48.118;11.628;2022-12-18T01:58:30;75.97;;;32.88;;
1014;SDS011;8170;48.118;11.628;2022-12-18T01:59:45;69.13;;;30.52;;
1014;SDS011;8170;48.118;11.628;2022-12-18T02:00:51;71.00;;;31.13;;
1014;SDS011;8170;48.118;11.628;2022-12-18T02:01:55;69.13;;;31.50;;
1014;SDS011;8170;48.118;11.628;2022-12-18T02:02:58;70.07;;;31.25;;
1014;SDS011;8170;48.118;11.628;2022-12-18T02:05:27;60.08;;;29.65;;
1014;SDS011;8170;48.118;11.628;2022-12-18T02:06:40;64.72;;;30.30;;
1014;SDS011;8170;48.118;11.628;2022-12-18T02:07:46;59.08;;;27.20;;
1014;SDS011;8170;48.118;11.628;2022-12-18T02:09:01;58.25;;;28.52;;
1014;SDS011;8170;48.118;11.628;2022-12-18T02:10:10;70.47;;;31.90;;
1014;SDS011;8170;48.118;11.628;2022-12-18T02:11:18;61.60;;;29.77;;
1014;SDS011;8170;48.118;11.628;2022-12-18T02:12:31;59.40;;;29.02;;
1014;SDS011;8170;48.118;11.628;2022-12-18T02:13:46;67.63;;;30.30;;
1014;SDS011;8170;48.118;11.628;2022-12-18T02:14:55;73.00;;;32.75;;
1014;SDS011;8170;48.118;11.628;2022-12-18T02:16:06;67.05;;;31.88;;
1014;SDS011;8170;48.118;11.628;2022-12-18T02:17:15;64.20;;;29.80;;
1014;SDS011;8170;48.118;11.628;2022-12-18T02:18:22;59.38;;;29.83;;
1014;SDS011;8170;48.118;11.628;2022-12-18T02:20:58;60.58;;;30.55;;
1014;SDS011;8170;48.118;11.628;2022-12-18T02:22:14;67.53;;;30.85;;
1014;SDS011;8170;48.118;11.628;2022-12-18T02:23:35;67.63;;;31.23;;
1014;SDS011;8170;48.118;11.628;2022-12-18T02:24:54;60.58;;;28.77;;
1014;SDS011;8170;48.118;11.628;2022-12-18T02:26:09;74.10;;;33.95;;
1014;SDS011;8170;48.118;11.628;2022-12-18T02:27:17;74.88;;;31.55;;
1014;SDS011;8170;48.118;11.628;2022-12-18T02:28:23;64.25;;;31.98;;
1014;SDS011;8170;48.118;11.628;2022-12-18T02:29:31;68.05;;;33.17;;
1014;SDS011;8170;48.118;11.628;2022-12-18T02:30:37;74.22;;;32.67;;
1014;SDS011;8170;48.118;11.628;2022-12-18T02:31:43;77.82;;;32.70;;
1014;SDS011;8170;48.118;11.628;2022-12-18T02:32:52;70.95;;;31.95;;
1014;SDS011;8170;48.118;11.628;2022-12-18T02:33:58;72.97;;;32.67;;
1014;SDS011;8170;48.118;11.628;2022-12-18T02:35:13;65.63;;;33.13;;
1014;SDS011;8170;48.118;11.628;2022-12-18T02:36:20;70.57;;;33.30;;
1014;SDS011;8170;48.118;11.628;2022-12-18T02:37:24;72.85;;;33.75;;
1014;SDS011;8170;48.118;11.628;2022-12-18T02:38:28;81.22;;;33.08;;
1014;SDS011;8170;48.118;11.628;2022-12-18T02:39:40;64.70;;;32.08;;
1014;SDS011;8170;48.118;11.628;2022-12-18T02:40:48;75.15;;;34.78;;
1014;SDS011;8170;48.118;11.628;2022-12-18T02:41:54;65.22;;;30.83;;
1014;SDS011;8170;48.118;11.628;2022-12-18T02:43:02;61.13;;;30.90;;
1014;SDS011;8170;48.118;11.628;2022-12-18T02:44:09;64.65;;;31.58;;
1014;SDS011;8170;48.118;11.628;2022-12-18T02:45:14;71.40;;;33.33;;
1014;SDS011;8170;48.118;11.628;2022-12-18T02:46:23;70.60;;;33.28;;
1014;SDS011;8170;48.118;11.628;2022-12-18T02:47:31;77.88;;;33.22;;
1014;SDS011;8170;48.118;11.628;2022-12-18T02:48:39;64.13;;;31.73;;
1014;SDS011;8170;48.118;11.628;2022-12-18T02:49:44;72.53;;;33.40;;
1014;SDS011;8170;48.118;11.628;2022-12-18T02:50:57;76.10;;;33.03;;
1014;SDS011;8170;48.118;11.628;2022-12-18T02:52:07;71.03;;;32.15;;
1014;SDS011;8170;48.118;11.628;2022-12-18T02:53:22;84.38;;;35.22;;
1014;SDS011;8170;48.118;11.628;2022-12-18T02:54:34;70.75;;;29.75;;
1014;SDS011;8170;48.118;11.628;2022-12-18T02:55:54;73.30;;;31.95;;
1014;SDS011;8170;48.118;11.628;2022-12-18T02:57:08;69.80;;;30.45;;
1014;SDS011;8170;48.118;11.628;2022-12-18T02:58:20;66.78;;;31.65;;
1014;SDS011;8170;48.118;11.628;2022-12-18T02:59:38;69.70;;;31.80;;
1014;SDS011;8170;48.118;11.628;2022-12-18T03:00:48;72.75;;;31.70;;
1014;SDS011;8170;48.118;11.628;2022-12-18T03:01:55;70.18;;;31.85;;
1014;SDS011;8170;48.118;11.628;2022-12-18T03:03:06;72.72;;;32.35;;
1014;SDS011;8170;48.118;11.628;2022-12-18T03:04:14;72.57;;;31.55;;
1014;SDS011;8170;48.118;11.628;2022-12-18T03:05:24;76.38;;;34.15;;
1014;SDS011;8170;48.118;11.628;2022-12-18T03:06:32;76.55;;;34.17;;
1014;SDS011;8170;48.118;11.628;2022-12-18T03:07:42;78.35;;;30.85;;
1014;SDS011;8170;48.118;11.628;2022-12-18T03:08:50;73.18;;;32.75;;
1014;SDS011;8170;48.118;11.628;2022-12-18T03:09:56;68.72;;;30.90;;
1014;SDS011;8170;48.118;11.628;2022-12-18T03:11:02;83.15;;;33.75;;
1014;SDS011;8170;48.118;11.628;2022-12-18T03:12:10;70.07;;;30.65;;
1014;SDS011;8170;48.118;11.628;2022-12-18T03:13:31;67.78;;;30.67;;
1014;SDS011;8170;48.118;11.628;2022-12-18T03:14:38;62.83;;;31.02;;
1014;SDS011;8170;48.118;11.628;2022-12-18T03:15:45;62.67;;;30.73;;
1014;SDS011;8170;48.118;11.628;2022-12-18T03:16:52;59.92;;;29.40;;
1014;SDS011;8170;48.118;11.628;2022-12-18T03:17:59;62.45;;;31.15;;
1014;SDS011;8170;48.118;11.628;2022-12-18T03:19:08;59.53;;;30.20;;
1014;SDS011;8170;48.118;11.628;2022-12-18T03:20:17;60.17;;;30.10;;
1014;SDS011;8170;48.118;11.628;2022-12-18T03:21:25;69.10;;;31.40;;
1014;SDS011;8170;48.118;11.628;2022-12-18T03:22:32;67.05;;;32.42;;
1014;SDS011;8170;48.118;11.628;2022-12-18T03:23:39;73.38;;;32.50;;
1014;SDS011;8170;48.118;11.628;2022-12-18T03:24:45;68.35;;;30.63;;
1014;SDS011;8170;48.118;11.628;2022-12-18T03:25:52;67.38;;;33.95;;
1014;SDS011;8170;48.118;11.628;2022-12-18T03:27:05;75.68;;;34.28;;
1014;SDS011;8170;48.118;11.628;2022-12-18T03:28:14;60.05;;;29.70;;
1014;SDS011;8170;48.118;11.628;2022-12-18T03:29:18;68.30;;;32.00;;
1014;SDS011;8170;48.118;11.628;2022-12-18T03:30:28;74.85;;;33.47;;
1014;SDS011;8170;48.118;11.628;2022-12-18T03:31:32;65.63;;;30.85;;
1014;SDS011;8170;48.118;11.628;2022-12-18T03:32:38;68.18;;;33.00;;
1014;SDS011;8170;48.118;11.628;2022-12-18T03:33:44;61.03;;;28.92;;
1014;SDS011;8170;48.118;11.628;2022-12-18T03:34:49;64.00;;;31.33;;
1014;SDS011;8170;48.118;11.628;2022-12-18T03:35:56;74.85;;;32.92;;
1014;SDS011;8170;48.118;11.628;2022-12-18T03:36:59;72.68;;;33.25;;
1014;SDS011;8170;48.118;11.628;2022-12-18T03:38:05;66.43;;;32.97;;
1014;SDS011;8170;48.118;11.628;2022-12-18T03:39:12;62.22;;;30.92;;
1014;SDS011;8170;48.118;11.628;2022-12-18T03:40:17;68.70;;;34.22;;
1014;SDS011;8170;48.118;11.628;2022-12-18T03:41:25;62.75;;;32.03;;
1014;SDS011;8170;48.118;11.628;2022-12-18T03:42:49;70.10;;;32.38;;
1014;SDS011;8170;48.118;11.628;2022-12-18T03:43:57;69.18;;;34.55;;
1014;SDS011;8170;48.118;11.628;2022-12-18T03:45:09;62.13;;;30.77;;
1014;SDS011;8170;48.118;11.628;2022-12-18T03:46:19;64.68;;;32.40;;
1014;SDS011;8170;48.118;11.628;2022-12-18T03:47:29;66.75;;;31.05;;
1014;SDS011;8170;48.118;11.628;2022-12-18T03:48:41;70.05;;;32.05;;
1014;SDS011;8170;48.118;11.628;2022-12-18T03:49:50;66.03;;;32.15;;
1014;SDS011;8170;48.118;11.628;2022-12-18T03:50:59;69.15;;;32.70;;
1014;SDS011;8170;48.118;11.628;2022-12-18T03:52:09;68.90;;;32.05;;
1014;SDS011;8170;48.118;11.628;2022-12-18T03:53:18;76.95;;;34.63;;
1014;SDS011;8170;48.118;11.628;2022-12-18T03:54:26;62.58;;;30.85;;
1014;SDS011;8170;48.118;11.628;2022-12-18T03:55:39;58.53;;;30.88;;
1014;SDS011;8170;48.118;11.628;2022-12-18T03:56:44;65.72;;;31.50;;
1014;SDS011;8170;48.118;11.628;2022-12-18T03:57:50;60.28;;;30.02;;
1014;SDS011;8170;48.118;11.628;2022-12-18T03:58:54;67.82;;;31.67;;
1014;SDS011;8170;48.118;11.628;2022-12-18T04:00:03;64.47;;;31.05;;
1014;SDS011;8170;48.118;11.628;2022-12-18T04:01:16;63.25;;;30.38;;
1014;SDS011;8170;48.118;11.628;2022-12-18T04:02:23;64.32;;;32.42;;
1014;SDS011;8170;48.118;11.628;2022-12-18T04:03:27;61.63;;;30.38;;
1014;SDS011;8170;48.118;11.628;2022-12-18T04:04:33;62.90;;;29.33;;
1014;SDS011;8170;48.118;11.628;2022-12-18T04:05:38;71.85;;;33.63;;
1014;SDS011;8170;48.118;11.628;2022-12-18T04:06:42;59.60;;;29.38;;
1014;SDS011;8170;48.118;11.628;2022-12-18T04:07:47;67.28;;;31.63;;
1014;SDS011;8170;48.118;11.628;2022-12-18T04:08:52;63.65;;;30.25;;
1014;SDS011;8170;48.118;11.628;2022-12-18T04:09:58;60.10;;;27.67;;
1014;SDS011;8170;48.118;11.628;2022-12-18T04:11:04;67.35;;;31.13;;
1014;SDS011;8170;48.118;11.628;2022-12-18T04:12:08;60.35;;;29.35;;
1014;SDS011;8170;48.118;11.628;2022-12-18T04:13:11;65.25;;;30.20;;
1014;SDS011;8170;48.118;11.628;2022-12-18T04:14:15;67.88;;;32.75;;
1014;SDS011;8170;48.118;11.628;2022-12-18T04:15:22;62.88;;;31.17;;
1014;SDS011;8170;48.118;11.628;2022-12-18T04:16:25;57.15;;;28.80;;
1014;SDS011;8170;48.118;11.628;2022-12-18T04:17:32;66.82;;;31.15;;
1014;SDS011;8170;48.118;11.628;2022-12-18T04:18:35;64.35;;;30.33;;
1014;SDS011;8170;48.118;11.628;2022-12-18T04:19:38;60.85;;;29.75;;
1014;SDS011;8170;48.118;11.628;2022-12-18T04:20:41;63.17;;;30.98;;
1014;SDS011;8170;48.118;11.628;2022-12-18T04:21:44;64.45;;;31.35;;
1014;SDS011;8170;48.118;11.628;2022-12-18T04:22:48;56.95;;;27.52;;
1014;SDS011;8170;48.118;11.628;2022-12-18T04:23:52;64.25;;;30.50;;
1014;SDS011;8170;48.118;11.628;2022-12-18T04:24:56;58.85;;;31.00;;
1014;SDS011;8170;48.118;11.628;2022-12-18T04:26:18;60.95;;;29.48;;
1014;SDS011;8170;48.118;11.628;2022-12-18T04:27:48;62.15;;;29.38;;
1014;SDS011;8170;48.118;11.628;2022-12-18T04:28:50;65.18;;;30.10;;
1014;SDS011;8170;48.118;11.628;2022-12-18T04:29:55;58.30;;;28.90;;
1014;SDS011;8170;48.118;11.628;2022-12-18T04:30:57;72.82;;;32.65;;
1014;SDS011;8170;48.118;11.628;2022-12-18T04:32:00;65.05;;;30.60;;
1014;SDS011;8170;48.118;11.628;2022-12-18T04:33:07;61.67;;;29.15;;
1014;SDS011;8170;48.118;11.628;2022-12-18T04:34:12;63.08;;;29.92;;
1014;SDS011;8170;48.118;11.628;2022-12-18T04:35:21;65.00;;;30.40;;
1014;SDS011;8170;48.118;11.628;2022-12-18T04:36:24;61.40;;;29.55;;
1014;SDS011;8170;48.118;11.628;2022-12-18T04:37:28;54.30;;;26.55;;
1014;SDS011;8170;48.118;11.628;2022-12-18T04:38:31;59.00;;;28.73;;
1014;SDS011;8170;48.118;11.628;2022-12-18T04:39:40;62.58;;;29.08;;
1014;SDS011;8170;48.118;11.628;2022-12-18T04:40:49;48.35;;;26.23;;
1014;SDS011;8170;48.118;11.628;2022-12-18T04:41:58;56.97;;;27.45;;
1014;SDS011;8170;48.118;11.628;2022-12-18T04:43:02;59.28;;;28.35;;
1014;SDS011;8170;48.118;11.628;2022-12-18T04:44:05;57.83;;;29.58;;
1014;SDS011;8170;48.118;11.628;2022-12-18T04:45:09;67.43;;;30.13;;
1014;SDS011;8170;48.118;11.628;2022-12-18T04:46:12;54.65;;;27.77;;
1014;SDS011;8170;48.118;11.628;2022-12-18T04:47:14;57.42;;;28.25;;
1014;SDS011;8170;48.118;11.628;2022-12-18T04:48:18;59.85;;;28.42;;
1014;SDS011;8170;48.118;11.628;2022-12-18T04:49:21;57.50;;;28.38;;
1014;SDS011;8170;48.118;11.628;2022-12-18T04:50:24;46.97;;;25.17;;
1014;SDS011;8170;48.118;11.628;2022-12-18T04:51:26;53.70;;;28.13;;
1014;SDS011;8170;48.118;11.628;2022-12-18T04:52:29;54.55;;;26.92;;
1014;SDS011;8170;48.118;11.628;2022-12-18T04:53:31;48.22;;;26.70;;
1014;SDS011;8170;48.118;11.628;2022-12-18T04:54:35;46.53;;;24.13;;
1014;SDS011;8170;48.118;11.628;2022-12-18T04:55:37;54.08;;;26.20;;
1014;SDS011;8170;48.118;11.628;2022-12-18T04:56:40;53.13;;;26.50;;
1014;SDS011;8170;48.118;11.628;2022-12-18T04:57:42;51.50;;;27.35;;
1014;SDS011;8170;48.118;11.628;2022-12-18T04:58:45;54.67;;;28.60;;
1014;SDS011;8170;48.118;11.628;2022-12-18T04:59:48;49.10;;;27.08;;
1014;SDS011;8170;48.118;11.628;2022-12-18T05:00:52;56.00;;;27.85;;
1014;SDS011;8170;48.118;11.628;2022-12-18T05:01:54;50.35;;;27.80;;
1014;SDS011;8170;48.118;11.628;2022-12-18T05:02:57;57.17;;;28.75;;
1014;SDS011;8170;48.118;11.628;2022-12-18T05:04:02;51.13;;;26.60;;
1014;SDS011;8170;48.118;11.628;2022-12-18T05:05:07;49.17;;;23.95;;
1014;SDS011;8170;48.118;11.628;2022-12-18T05:06:09;52.03;;;26.38;;
1014;SDS011;8170;48.118;11.628;2022-12-18T05:07:13;48.75;;;24.85;;
1014;SDS011;8170;48.118;11.628;2022-12-18T05:08:15;51.33;;;26.35;;
1014;SDS011;8170;48.118;11.628;2022-12-18T05:09:18;55.13;;;26.20;;
1014;SDS011;8170;48.118;11.628;2022-12-18T05:10:20;63.45;;;30.17;;
1014;SDS011;8170;48.118;11.628;2022-12-18T05:11:23;52.35;;;25.65;;
1014;SDS011;8170;48.118;11.628;2022-12-18T05:12:25;49.08;;;25.17;;
1014;SDS011;8170;48.118;11.628;2022-12-18T05:13:29;50.53;;;25.27;;
1014;SDS011;8170;48.118;11.628;2022-12-18T05:14:31;51.22;;;25.02;;
1014;SDS011;8170;48.118;11.628;2022-12-18T05:15:34;49.05;;;25.48;;
1014;SDS011;8170;48.118;11.628;2022-12-18T05:16:38;50.90;;;26.20;;
1014;SDS011;8170;48.118;11.628;2022-12-18T05:17:41;53.13;;;25.33;;
1014;SDS011;8170;48.118;11.628;2022-12-18T05:18:43;54.42;;;26.83;;
1014;SDS011;8170;48.118;11.628;2022-12-18T05:19:46;46.90;;;25.27;;
1014;SDS011;8170;48.118;11.628;2022-12-18T05:20:49;47.40;;;24.00;;
1014;SDS011;8170;48.118;11.628;2022-12-18T05:21:52;52.15;;;25.90;;
1014;SDS011;8170;48.118;11.628;2022-12-18T05:22:54;51.25;;;26.45;;
1014;SDS011;8170;48.118;11.628;2022-12-18T05:23:58;49.33;;;24.92;;
1014;SDS011;8170;48.118;11.628;2022-12-18T05:25:00;46.88;;;24.92;;
1014;SDS011;8170;48.118;11.628;2022-12-18T05:26:04;56.00;;;26.35;;
1014;SDS011;8170;48.118;11.628;2022-12-18T05:27:07;42.97;;;24.83;;
1014;SDS011;8170;48.118;11.628;2022-12-18T05:28:10;50.47;;;25.67;;
1014;SDS011;8170;48.118;11.628;2022-12-18T05:29:13;46.78;;;24.70;;
1014;SDS011;8170;48.118;11.628;2022-12-18T05:30:16;49.08;;;26.63;;
1014;SDS011;8170;48.118;11.628;2022-12-18T05:31:18;51.50;;;26.30;;
1014;SDS011;8170;48.118;11.628;2022-12-18T05:32:22;49.42;;;25.67;;
1014;SDS011;8170;48.118;11.628;2022-12-18T05:33:25;47.22;;;25.95;;
1014;SDS011;8170;48.118;11.628;2022-12-18T05:34:30;45.42;;;24.75;;
1014;SDS011;8170;48.118;11.628;2022-12-18T05:35:34;48.60;;;25.67;;
1014;SDS011;8170;48.118;11.628;2022-12-18T05:36:37;47.08;;;25.50;;
1014;SDS011;8170;48.118;11.628;2022-12-18T05:37:39;48.22;;;26.67;;
1014;SDS011;8170;48.118;11.628;2022-12-18T05:38:43;51.50;;;26.70;;
1014;SDS011;8170;48.118;11.628;2022-12-18T05:39:45;47.80;;;26.15;;
1014;SDS011;8170;48.118;11.628;2022-12-18T05:40:51;49.33;;;25.70;;
1014;SDS011;8170;48.118;11.628;2022-12-18T05:41:54;47.35;;;25.73;;
1014;SDS011;8170;48.118;11.628;2022-12-18T05:42:57;52.50;;;26.90;;
1014;SDS011;8170;48.118;11.628;2022-12-18T05:44:00;54.42;;;27.77;;
1014;SDS011;8170;48.118;11.628;2022-12-18T05:45:03;51.42;;;26.13;;
1014;SDS011;8170;48.118;11.628;2022-12-18T05:46:07;46.78;;;26.25;;
1014;SDS011;8170;48.118;11.628;2022-12-18T05:47:13;49.70;;;26.15;;
1014;SDS011;8170;48.118;11.628;2022-12-18T05:48:17;46.38;;;24.90;;
1014;SDS011;8170;48.118;11.628;2022-12-18T05:49:21;51.90;;;27.05;;
1014;SDS011;8170;48.118;11.628;2022-12-18T05:50:23;44.85;;;23.40;;
1014;SDS011;8170;48.118;11.628;2022-12-18T05:51:26;50.45;;;25.40;;
1014;SDS011;8170;48.118;11.628;2022-12-18T05:52:29;45.65;;;24.30;;
1014;SDS011;8170;48.118;11.628;2022-12-18T05:53:33;51.83;;;25.88;;
1014;SDS011;8170;48.118;11.628;2022-12-18T05:54:36;47.70;;;25.15;;
1014;SDS011;8170;48.118;11.628;2022-12-18T05:55:40;48.47;;;25.40;;
1014;SDS011;8170;48.118;11.628;2022-12-18T05:56:43;52.80;;;26.70;;
1014;SDS011;8170;48.118;11.628;2022-12-18T05:57:49;54.75;;;26.67;;
1014;SDS011;8170;48.118;11.628;2022-12-18T05:58:52;53.13;;;24.52;;
1014;SDS011;8170;48.118;11.628;2022-12-18T05:59:55;53.35;;;26.77;;
1014;SDS011;8170;48.118;11.628;2022-12-18T06:00:57;45.35;;;23.70;;
1014;SDS011;8170;48.118;11.628;2022-12-18T06:02:08;47.45;;;23.05;;
1014;SDS011;8170;48.118;11.628;2022-12-18T06:03:11;48.28;;;25.85;;
1014;SDS011;8170;48.118;11.628;2022-12-18T06:04:17;45.95;;;24.35;;
1014;SDS011;8170;48.118;11.628;2022-12-18T06:05:22;47.78;;;25.35;;
1014;SDS011;8170;48.118;11.628;2022-12-18T06:06:26;47.22;;;24.50;;
1014;SDS011;8170;48.118;11.628;2022-12-18T06:07:29;44.35;;;24.27;;
1014;SDS011;8170;48.118;11.628;2022-12-18T06:08:33;46.47;;;24.10;;
1014;SDS011;8170;48.118;11.628;2022-12-18T06:09:35;51.53;;;25.95;;
1014;SDS011;8170;48.118;11.628;2022-12-18T06:10:39;49.03;;;24.35;;
1014;SDS011;8170;48.118;11.628;2022-12-18T06:11:41;52.95;;;25.80;;
1014;SDS011;8170;48.118;11.628;2022-12-18T06:12:44;47.53;;;25.40;;
1014;SDS011;8170;48.118;11.628;2022-12-18T06:13:49;51.38;;;25.92;;
1014;SDS011;8170;48.118;11.628;2022-12-18T06:14:58;44.67;;;23.63;;
1014;SDS011;8170;48.118;11.628;2022-12-18T06:16:01;55.38;;;27.67;;
1014;SDS011;8170;48.118;11.628;2022-12-18T06:17:05;44.53;;;24.30;;
1014;SDS011;8170;48.118;11.628;2022-12-18T06:18:08;41.28;;;19.58;;
1014;SDS011;8170;48.118;11.628;2022-12-18T06:19:13;49.08;;;24.42;;
1014;SDS011;8170;48.118;11.628;2022-12-18T06:20:20;42.55;;;23.63;;
1014;SDS011;8170;48.118;11.628;2022-12-18T06:21:22;47.65;;;23.88;;
1014;SDS011;8170;48.118;11.628;2022-12-18T06:22:26;46.05;;;22.90;;
1014;SDS011;8170;48.118;11.628;2022-12-18T06:23:28;50.75;;;26.15;;
1014;SDS011;8170;48.118;11.628;2022-12-18T06:24:31;45.75;;;23.98;;
1014;SDS011;8170;48.118;11.628;2022-12-18T06:25:37;46.80;;;24.10;;
1014;SDS011;8170;48.118;11.628;2022-12-18T06:26:40;47.05;;;24.73;;
1014;SDS011;8170;48.118;11.628;2022-12-18T06:27:43;45.28;;;24.00;;
1014;SDS011;8170;48.118;11.628;2022-12-18T06:28:46;55.65;;;26.27;;
1014;SDS011;8170;48.118;11.628;2022-12-18T06:29:50;46.08;;;24.60;;
1014;SDS011;8170;48.118;11.628;2022-12-18T06:30:53;49.03;;;23.35;;
1014;SDS011;8170;48.118;11.628;2022-12-18T06:31:55;49.90;;;24.23;;